Archival Weather

Chicago O'Hare International

Chicago, Illinois (KORD)

Report from: Saturday, March 5, 2022 6:51 AM CST
Current time: Saturday, February 4, 2023 10:05 PM CST

Current weather
Weather history
Weather forecast

Temperature4.4°C (39.9°F)
Wind chill1.1°C (33.9°F)
Dew point-2.8°C (27.0°F)
Winds 8 kts (4.1 m/s, 9.2 mph) South-Southeast (160°)
Visibility10 mi. (16.1 km)
Clouds Few clouds 15,000 ft. (4,572 m)
Scattered clouds 20,000 ft. (6,096 m)
Altimeter29.95 in.Hg (1014 mB)
Relative humidity59 %
Density altitude-1,238 ft. (-377 m)
Sea-level pressure101.5 kPa (1015 mB, 29.97 in.Hg)
Remarks Automated weather observing station with precipitation discriminator
Flight conditions Visual Meteorological Conditions
Raw dataKORD 051251Z 16008KT 10SM FEW150 SCT200 04/M03 A2995 RMK AO2 SLP148 T00441028
An unhandled exception has occurred. See browser dev tools for details. Reload 🗙